Time;durP1;ratioP1;P1;durP2;ratioP2;P2;SDS_P1;SDS_P2;PMS_P1;PMS_P2;Temp;Humidity;BMP_temperature;BMP_pressure;BME280_temperature;BME280_humidity;BME280_pressure;Samples;Min_cycle;Max_cycle;Signal;HPM_P1;HPM_P2
2022/01/10 00:02:29;;;;;;;39.47;19.07;;;2.30;99.90;;;;;;5044775;28;20904;-81
2022/01/10 00:04:58;;;;;;;42.73;19.53;;;2.40;99.90;;;;;;5026167;28;20452;-81
2022/01/10 00:07:25;;;;;;;29.57;18.17;;;2.50;99.90;;;;;;5045184;28;20885;-82
2022/01/10 00:10:02;;;;;;;38.27;19.10;;;2.60;99.90;;;;;;5045198;28;20531;-82
2022/01/10 00:12:35;;;;;;;41.00;18.97;;;2.60;99.90;;;;;;5045752;28;20464;-81
2022/01/10 00:15:06;;;;;;;31.90;20.17;;;2.50;99.90;;;;;;5061540;28;20485;-81
2022/01/10 00:17:36;;;;;;;35.80;20.90;;;2.40;99.90;;;;;;5068220;28;20451;-81
2022/01/10 00:20:10;;;;;;;35.23;19.10;;;2.40;99.90;;;;;;5049666;28;21218;-81
2022/01/10 00:22:40;;;;;;;42.00;19.73;;;2.30;99.90;;;;;;5065640;28;20442;-81
2022/01/10 00:25:10;;;;;;;40.40;20.37;;;2.20;99.90;;;;;;5067766;28;20447;-81
2022/01/10 00:27:39;;;;;;;40.73;18.37;;;2.30;99.90;;;;;;5067350;28;20581;-81
2022/01/10 00:30:09;;;;;;;41.17;20.40;;;2.20;99.90;;;;;;5071187;28;20555;-82
2022/01/10 00:32:45;;;;;;;33.77;19.43;;;2.30;99.90;;;;;;5070366;28;20456;-82
2022/01/10 00:35:14;;;;;;;43.50;20.67;;;2.40;99.90;;;;;;5070241;28;20900;-82
2022/01/10 00:37:43;;;;;;;35.00;19.93;;;2.40;99.90;;;;;;5070111;28;20475;-82
2022/01/10 00:40:15;;;;;;;35.80;20.43;;;2.30;99.90;;;;;;5064376;28;20482;-82
2022/01/10 00:42:56;;;;;;;37.23;19.00;;;2.30;99.90;;;;;;5063908;28;20457;-81
2022/01/10 00:45:26;;;;;;;36.67;20.47;;;2.30;99.90;;;;;;5063307;28;20481;-81
2022/01/10 00:47:55;;;;;;;33.77;20.30;;;2.20;99.90;;;;;;5063635;28;20440;-82
2022/01/10 00:50:36;;;;;;;37.33;20.20;;;2.30;99.90;;;;;;5063371;28;20535;-81
2022/01/10 00:53:05;;;;;;;40.53;20.97;;;2.30;99.90;;;;;;5045085;28;20448;-81
2022/01/10 00:55:33;;;;;;;34.13;20.60;;;2.30;99.90;;;;;;5045113;28;21013;-82
2022/01/10 00:58:06;;;;;;;36.97;20.40;;;2.20;99.90;;;;;;5063376;28;20467;-81
2022/01/10 01:00:34;;;;;;;43.53;27.88;;;2.20;99.90;;;;;;5062133;28;20443;-81
2022/01/10 01:03:02;;;;;;;41.03;22.50;;;2.30;99.90;;;;;;5063174;28;20198;-82
2022/01/10 01:05:33;;;;;;;40.03;21.23;;;2.40;99.90;;;;;;5062702;28;20481;-82
2022/01/10 01:08:11;;;;;;;36.23;21.43;;;2.40;99.90;;;;;;5064034;28;20451;-82
2022/01/10 01:13:36;;;;;;;38.73;19.63;;;2.30;99.90;;;;;;5036224;28;21005;-82
2022/01/10 01:16:14;;;;;;;34.97;19.17;;;2.40;99.90;;;;;;5049754;28;20479;-81
2022/01/10 01:19:07;;;;;;;37.93;21.50;;;2.30;99.90;;;;;;5075174;28;20503;-82
2022/01/10 01:24:25;;;;;;;34.87;20.40;;;2.40;99.90;;;;;;5075437;28;20515;-82
2022/01/10 01:26:54;;;;;;;40.47;22.07;;;2.30;99.90;;;;;;5073016;28;20451;-82
2022/01/10 01:29:26;;;;;;;32.13;21.17;;;2.30;99.90;;;;;;5066630;28;20477;-82
2022/01/10 01:31:55;;;;;;;35.77;21.33;;;2.20;99.90;;;;;;5064631;28;20920;-81
2022/01/10 01:41:34;;;;;;;49.63;21.17;;;2.10;99.90;;;;;;5034967;28;20515;-87
2022/01/10 01:44:04;;;;;;;36.07;19.30;;;2.10;99.90;;;;;;5072618;22;21079;-87
2022/01/10 01:46:34;;;;;;;35.13;20.00;;;2.10;99.90;;;;;;5054565;28;20484;-86
2022/01/10 01:49:08;;;;;;;41.93;21.37;;;2.10;99.90;;;;;;5054921;28;20502;-90
2022/01/10 01:51:38;;;;;;;38.77;20.53;;;2.10;99.90;;;;;;5036877;28;20462;-85
2022/01/10 01:54:06;;;;;;;36.43;20.80;;;2.10;99.90;;;;;;5054618;28;20451;-89
2022/01/10 01:56:35;;;;;;;41.83;20.97;;;2.10;99.90;;;;;;5054226;28;20491;-85
2022/01/10 01:59:04;;;;;;;36.17;19.73;;;2.00;99.90;;;;;;5054468;28;20436;-86
2022/01/10 02:01:37;;;;;;;36.57;20.43;;;2.00;99.90;;;;;;5054656;28;20432;-88
2022/01/10 02:04:05;;;;;;;40.53;20.43;;;2.00;99.90;;;;;;5054715;28;20834;-86
2022/01/10 02:06:38;;;;;;;30.73;19.60;;;1.90;99.90;;;;;;5054471;28;20444;-86
2022/01/10 02:09:14;;;;;;;32.47;19.23;;;1.80;99.90;;;;;;5054566;28;20465;-85
2022/01/10 02:11:47;;;;;;;43.40;20.43;;;1.80;99.90;;;;;;5054667;28;20439;-87
2022/01/10 02:14:18;;;;;;;36.67;20.70;;;1.90;99.90;;;;;;5053967;28;20458;-86
2022/01/10 02:16:54;;;;;;;41.00;21.40;;;1.80;99.90;;;;;;5054067;28;20624;-86
2022/01/10 02:19:24;;;;;;;36.67;20.27;;;1.70;99.90;;;;;;5054569;28;20431;-84
2022/01/10 02:21:54;;;;;;;31.97;19.87;;;1.80;99.90;;;;;;5054134;28;20454;-89
2022/01/10 02:24:23;;;;;;;36.07;20.90;;;1.80;99.90;;;;;;5054481;28;20447;-85
2022/01/10 02:26:52;;;;;;;34.00;20.00;;;1.80;99.90;;;;;;5053729;28;20890;-87
2022/01/10 02:29:20;;;;;;;37.90;21.77;;;1.90;99.90;;;;;;5054286;28;20424;-86
2022/01/10 02:31:53;;;;;;;37.13;20.60;;;1.80;99.90;;;;;;5054106;28;20463;-85
2022/01/10 02:34:24;;;;;;;38.73;21.30;;;1.90;99.90;;;;;;5053915;28;20451;-89
2022/01/10 02:36:58;;;;;;;30.87;20.67;;;1.80;99.90;;;;;;5054157;28;20787;-88
2022/01/10 02:39:25;;;;;;;35.77;19.67;;;1.70;99.90;;;;;;5053876;28;20440;-87
2022/01/10 02:41:55;;;;;;;34.47;20.23;;;1.70;99.90;;;;;;5053916;28;20455;-86
2022/01/10 02:44:29;;;;;;;39.27;22.20;;;1.70;99.90;;;;;;5052805;28;20451;-84
2022/01/10 02:47:02;;;;;;;38.73;21.80;;;1.70;99.90;;;;;;5053960;28;20486;-88
2022/01/10 02:49:34;;;;;;;40.50;21.63;;;1.60;99.90;;;;;;5053589;28;20432;-86
2022/01/10 02:52:09;;;;;;;41.57;21.67;;;1.60;99.90;;;;;;5053810;28;20447;-87
2022/01/10 02:54:39;;;;;;;46.30;22.00;;;1.60;99.90;;;;;;5053889;28;20788;-86
2022/01/10 02:57:18;;;;;;;42.40;21.50;;;1.60;99.90;;;;;;5053593;28;20480;-87
2022/01/10 02:59:52;;;;;;;38.13;20.93;;;1.60;99.90;;;;;;5054237;28;20526;-86
2022/01/10 03:02:20;;;;;;;43.43;21.87;;;1.60;99.90;;;;;;5053931;28;20812;-84
2022/01/10 03:04:49;;;;;;;38.40;21.80;;;1.70;99.90;;;;;;5053578;28;20895;-86
2022/01/10 03:07:23;;;;;;;42.10;22.37;;;1.80;99.90;;;;;;5053505;28;20459;-88
2022/01/10 03:09:57;;;;;;;44.17;22.53;;;1.80;99.90;;;;;;5053348;28;20538;-88
2022/01/10 03:12:26;;;;;;;42.40;21.90;;;1.90;99.90;;;;;;5053157;28;20590;-87
2022/01/10 03:14:56;;;;;;;39.97;22.77;;;1.90;99.90;;;;;;5053516;28;20435;-86
2022/01/10 03:17:29;;;;;;;45.07;22.53;;;1.90;99.90;;;;;;5053270;28;20477;-87
2022/01/10 03:19:59;;;;;;;36.57;22.90;;;2.00;99.90;;;;;;5035769;28;20462;-85
2022/01/10 03:22:27;;;;;;;41.17;23.77;;;1.90;99.90;;;;;;5035371;28;20435;-86
2022/01/10 03:24:54;;;;;;;41.40;23.57;;;1.90;99.90;;;;;;5053139;28;20481;-85
2022/01/10 03:27:21;;;;;;;34.97;23.20;;;1.90;99.90;;;;;;5053197;28;20448;-87
2022/01/10 03:29:49;;;;;;;38.03;21.53;;;2.00;99.90;;;;;;5053485;28;20438;-87
2022/01/10 03:32:23;;;;;;;39.70;23.43;;;1.90;99.90;;;;;;5053336;28;20458;-85
2022/01/10 03:34:52;;;;;;;43.77;22.50;;;1.90;99.90;;;;;;5035428;28;20439;-91
2022/01/10 03:37:21;;;;;;;46.63;23.83;;;2.00;99.90;;;;;;5053310;28;20838;-86
2022/01/10 03:39:52;;;;;;;41.57;22.53;;;2.00;99.90;;;;;;5052969;28;20462;-86
2022/01/10 03:42:19;;;;;;;41.50;22.90;;;2.10;99.90;;;;;;5052807;28;20533;-84
2022/01/10 03:44:46;;;;;;;40.00;22.63;;;2.20;99.90;;;;;;5033179;28;20463;-89
2022/01/10 03:47:20;;;;;;;33.50;22.83;;;2.10;99.90;;;;;;5033256;28;20804;-85
2022/01/10 03:49:49;;;;;;;42.03;22.57;;;2.10;99.90;;;;;;5015644;28;20493;-88
2022/01/10 03:52:18;;;;;;;37.30;21.67;;;2.20;99.90;;;;;;5015515;28;20535;-90
2022/01/10 03:54:48;;;;;;;47.77;23.53;;;2.10;99.90;;;;;;4999149;28;20449;-87
2022/01/10 03:57:17;;;;;;;36.27;21.40;;;2.20;99.90;;;;;;5036223;28;20484;-86
2022/01/10 03:59:47;;;;;;;44.23;22.90;;;2.20;99.90;;;;;;5017997;28;20485;-89
2022/01/10 04:02:24;;;;;;;35.70;20.87;;;2.10;99.90;;;;;;5036771;28;20443;-85
2022/01/10 04:04:53;;;;;;;47.50;28.45;;;2.10;99.90;;;;;;5035660;28;20928;-88
2022/01/10 04:07:26;;;;;;;40.20;24.33;;;2.30;99.90;;;;;;5036665;28;20204;-88
2022/01/10 04:09:55;;;;;;;43.33;22.67;;;2.20;99.90;;;;;;5036235;28;20478;-88
2022/01/10 04:12:30;;;;;;;33.70;22.70;;;2.30;99.90;;;;;;5036795;28;20533;-83
2022/01/10 04:14:59;;;;;;;45.93;23.13;;;2.20;99.90;;;;;;5036479;28;20831;-84
2022/01/10 04:17:27;;;;;;;37.30;21.17;;;1.80;99.90;;;;;;5036519;28;20965;-85
2022/01/10 04:19:57;;;;;;;39.90;21.60;;;1.90;99.90;;;;;;5036602;28;20437;-85
2022/01/10 04:22:23;;;;;;;35.27;21.37;;;1.90;99.90;;;;;;5036103;28;20424;-86
2022/01/10 04:24:53;;;;;;;45.40;21.77;;;1.90;99.90;;;;;;5036058;28;20444;-86
2022/01/10 04:27:26;;;;;;;44.07;21.50;;;1.80;99.90;;;;;;5036132;28;20575;-86
2022/01/10 04:30:00;;;;;;;42.40;22.10;;;1.70;99.90;;;;;;5035973;28;20444;-86
2022/01/10 04:32:30;;;;;;;38.60;22.93;;;1.60;99.90;;;;;;5036414;28;20428;-89
2022/01/10 04:34:57;;;;;;;43.47;21.93;;;1.60;99.90;;;;;;5036262;28;20445;-87
2022/01/10 04:37:31;;;;;;;36.27;21.07;;;1.50;99.90;;;;;;5035645;28;20672;-90
2022/01/10 04:39:57;;;;;;;38.30;19.77;;;1.40;99.90;;;;;;5036375;28;20460;-88
2022/01/10 04:42:29;;;;;;;35.77;20.80;;;1.50;99.90;;;;;;5018241;28;20468;-85
2022/01/10 04:44:58;;;;;;;39.27;20.87;;;1.50;99.90;;;;;;5019905;28;20447;-90
2022/01/10 04:47:26;;;;;;;40.33;21.47;;;1.50;99.90;;;;;;5048383;28;20501;-84
2022/01/10 04:50:10;;;;;;;32.50;20.90;;;1.50;99.90;;;;;;5042492;28;20449;-91
2022/01/10 04:52:38;;;;;;;34.60;21.43;;;1.50;99.90;;;;;;5060115;28;20462;-93
2022/01/10 04:55:48;;;;;;;37.27;21.10;;;1.40;99.90;;;;;;5060434;28;20453;-92
2022/01/10 04:58:15;;;;;;;31.63;20.50;;;1.50;99.90;;;;;;5061608;28;20458;-93
2022/01/10 05:00:42;;;;;;;38.93;20.70;;;1.50;99.90;;;;;;5059459;28;20458;-91
2022/01/10 05:03:12;;;;;;;38.97;21.00;;;1.40;99.90;;;;;;5060947;28;20471;-92
2022/01/10 05:05:41;;;;;;;44.47;21.40;;;1.40;99.90;;;;;;5067888;28;20531;-92
2022/01/10 05:08:09;;;;;;;41.37;20.40;;;1.40;99.90;;;;;;5063155;28;20535;-93
2022/01/10 05:10:37;;;;;;;35.13;21.27;;;1.40;99.90;;;;;;5066923;28;20523;-93
2022/01/10 05:13:10;;;;;;;35.37;20.67;;;1.40;99.90;;;;;;5067710;28;20501;-93
2022/01/10 05:15:56;;;;;;;36.57;21.27;;;1.50;99.90;;;;;;5069005;28;20463;-91
2022/01/10 05:18:41;;;;;;;39.27;20.50;;;1.50;99.90;;;;;;5069659;28;20447;-92
2022/01/10 05:21:13;;;;;;;35.10;19.77;;;1.50;99.90;;;;;;5066931;28;20521;-92
2022/01/10 05:23:55;;;;;;;40.93;20.40;;;1.40;99.90;;;;;;5064705;28;20440;-92
2022/01/10 05:26:28;;;;;;;33.03;20.20;;;1.50;99.90;;;;;;5068583;28;20550;-93
2022/01/10 05:29:00;;;;;;;34.03;20.10;;;1.40;99.90;;;;;;5069438;28;20462;-93
2022/01/10 05:31:33;;;;;;;35.73;19.77;;;1.40;99.90;;;;;;5069723;28;20535;-92
2022/01/10 05:34:03;;;;;;;37.13;19.07;;;1.30;99.90;;;;;;5068782;28;20451;-93
2022/01/10 05:36:48;;;;;;;34.17;19.33;;;1.20;99.90;;;;;;5067892;28;20467;-93
2022/01/10 05:39:22;;;;;;;35.60;19.57;;;1.20;99.90;;;;;;5069592;28;20448;-94
2022/01/10 05:42:05;;;;;;;38.50;20.00;;;1.10;99.90;;;;;;5070459;28;20490;-93
2022/01/10 05:44:43;;;;;;;34.57;19.70;;;1.20;99.90;;;;;;5070929;28;20451;-94
2022/01/10 05:47:17;;;;;;;32.50;19.60;;;1.30;99.90;;;;;;5070691;28;20480;-93
2022/01/10 05:50:01;;;;;;;41.07;21.13;;;1.30;99.90;;;;;;5071140;28;20447;-94
2022/01/10 05:52:34;;;;;;;38.37;20.03;;;1.30;99.90;;;;;;5071088;28;20519;-94
2022/01/10 05:55:24;;;;;;;40.63;18.00;;;1.30;99.90;;;;;;5065564;28;20456;-91
2022/01/10 05:57:56;;;;;;;34.83;17.57;;;1.10;99.90;;;;;;5066102;28;20471;-94
2022/01/10 06:00:27;;;;;;;43.93;18.13;;;1.00;99.90;;;;;;5071248;28;20471;-92
2022/01/10 06:02:58;;;;;;;40.53;18.87;;;1.00;99.90;;;;;;5068396;28;20534;-92
2022/01/10 06:05:31;;;;;;;44.53;17.77;;;1.20;99.90;;;;;;5064544;28;20463;-93
2022/01/10 06:08:08;;;;;;;44.43;17.77;;;1.00;99.90;;;;;;5063951;28;20497;-95
2022/01/10 06:10:42;;;;;;;38.67;16.53;;;1.10;99.90;;;;;;5065114;28;20505;-94
2022/01/10 06:13:10;;;;;;;30.33;16.43;;;1.10;99.90;;;;;;5062558;28;20448;-92
2022/01/10 06:15:41;;;;;;;28.47;16.43;;;1.10;99.90;;;;;;5061889;28;20527;-93
2022/01/10 06:18:28;;;;;;;40.13;15.83;;;1.00;99.90;;;;;;5061630;28;20506;-93
2022/01/10 06:21:01;;;;;;;45.73;15.83;;;1.00;99.90;;;;;;5063565;28;20459;-94
2022/01/10 06:23:29;;;;;;;36.67;15.07;;;1.00;99.90;;;;;;5068887;28;20455;-93
2022/01/10 06:26:00;;;;;;;48.47;16.80;;;0.90;99.90;;;;;;5068325;28;20429;-92
2022/01/10 06:28:37;;;;;;;45.80;16.20;;;0.80;99.90;;;;;;5066524;28;20498;-94
2022/01/10 06:31:06;;;;;;;56.57;16.97;;;0.80;99.90;;;;;;5066247;28;20531;-92
2022/01/10 06:33:36;;;;;;;45.87;16.57;;;0.80;99.90;;;;;;5067219;28;20503;-92
2022/01/10 06:36:16;;;;;;;79.83;16.87;;;0.80;99.90;;;;;;5067840;28;20447;-92
2022/01/10 06:38:43;;;;;;;73.07;17.23;;;0.80;99.90;;;;;;5066450;28;20487;-93
2022/01/10 06:41:10;;;;;;;68.23;18.40;;;0.70;99.90;;;;;;5063740;28;20458;-92
2022/01/10 06:43:41;;;;;;;53.07;13.47;;;0.70;99.90;;;;;;5062281;28;20495;-91
2022/01/10 06:46:28;;;;;;;70.80;15.43;;;0.60;99.90;;;;;;5065398;28;20485;-92
2022/01/10 06:48:59;;;;;;;40.57;14.50;;;0.50;99.90;;;;;;5056974;28;20439;-91
2022/01/10 06:51:49;;;;;;;59.43;17.27;;;0.50;99.90;;;;;;5072740;28;20489;-91
2022/01/10 06:54:18;;;;;;;59.23;15.73;;;0.50;99.90;;;;;;5072459;28;20447;-92
2022/01/10 06:56:58;;;;;;;102.00;16.00;;;0.50;99.90;;;;;;5072687;28;20475;-92
2022/01/10 06:59:45;;;;;;;70.27;15.67;;;0.40;99.90;;;;;;5073743;28;20443;-90
2022/01/10 07:05:40;;;;;;;37.33;14.83;;;0.10;99.90;;;;;;5070822;28;20447;-92
2022/01/10 07:08:42;;;;;;;35.47;13.53;;;0.20;99.90;;;;;;5070879;28;20458;-92
2022/01/10 07:11:11;;;;;;;73.13;14.60;;;0.30;99.90;;;;;;5067206;28;20462;-92
2022/01/10 07:13:39;;;;;;;46.57;15.70;;;0.40;99.90;;;;;;5064646;28;20475;-92
2022/01/10 07:16:13;;;;;;;44.53;15.70;;;0.50;99.90;;;;;;5063921;28;20480;-92
2022/01/10 07:18:46;;;;;;;66.87;16.40;;;0.50;99.90;;;;;;5064059;28;20482;-92
2022/01/10 07:21:13;;;;;;;73.70;15.87;;;0.40;99.90;;;;;;5065693;28;20471;-94
2022/01/10 07:23:48;;;;;;;64.43;16.50;;;0.40;99.90;;;;;;5064399;28;20444;-92
2022/01/10 07:26:23;;;;;;;51.10;15.27;;;0.40;99.90;;;;;;5063781;28;20530;-91
2022/01/10 07:28:51;;;;;;;50.83;16.77;;;0.40;99.90;;;;;;5066905;28;20459;-92
2022/01/10 07:31:18;;;;;;;49.93;16.37;;;0.60;99.90;;;;;;5066019;28;20451;-93
2022/01/10 07:34:00;;;;;;;59.83;16.33;;;0.60;99.90;;;;;;5069198;28;20462;-91
2022/01/10 07:36:28;;;;;;;59.93;15.13;;;0.70;99.90;;;;;;5068562;28;20470;-90
2022/01/10 07:42:16;;;;;;;43.73;15.30;;;0.40;99.90;;;;;;5071411;28;20459;-92
2022/01/10 07:45:29;;;;;;;62.37;16.20;;;0.50;99.90;;;;;;5072938;28;20506;-92
2022/01/10 07:48:23;;;;;;;44.70;16.30;;;0.40;99.90;;;;;;5075791;28;20454;-93
2022/01/10 07:50:56;;;;;;;66.20;16.93;;;0.40;99.90;;;;;;5075377;28;20466;-93
2022/01/10 07:56:17;;;;;;;72.67;16.10;;;0.40;99.90;;;;;;5073910;28;20450;-92
2022/01/10 08:03:02;;;;;;;83.93;16.17;;;0.30;99.90;;;;;;5076623;28;20455;-92
2022/01/10 08:05:39;;;;;;;44.20;16.40;;;0.40;99.90;;;;;;5079755;28;20427;-92
2022/01/10 08:08:15;;;;;;;62.27;17.00;;;0.40;99.90;;;;;;5061089;28;20505;-92
2022/01/10 08:10:42;;;;;;;55.70;18.10;;;0.40;99.90;;;;;;5054820;28;20442;-92
2022/01/10 08:13:15;;;;;;;49.77;17.60;;;0.50;99.90;;;;;;5066869;28;20423;-92
2022/01/10 08:15:43;;;;;;;68.83;17.47;;;0.60;99.90;;;;;;5077410;28;20419;-91
2022/01/10 08:18:13;;;;;;;62.67;17.37;;;0.70;99.90;;;;;;5071845;28;20467;-92
2022/01/10 08:20:46;;;;;;;54.07;18.47;;;0.80;99.90;;;;;;5075220;28;20447;-91
2022/01/10 08:23:14;;;;;;;50.73;16.43;;;0.80;99.90;;;;;;5075500;28;20439;-91
2022/01/10 08:25:48;;;;;;;57.80;17.57;;;0.80;99.90;;;;;;5075592;28;20527;-92
2022/01/10 08:28:16;;;;;;;45.33;16.23;;;0.80;99.90;;;;;;5074404;28;20458;-92
2022/01/10 08:30:44;;;;;;;59.30;16.60;;;0.80;99.90;;;;;;5072677;28;20487;-91
2022/01/10 08:33:17;;;;;;;51.43;17.33;;;0.80;99.90;;;;;;5075251;28;20511;-90
2022/01/10 08:35:48;;;;;;;52.80;16.67;;;0.90;99.90;;;;;;5075350;28;20452;-90
2022/01/10 08:38:25;;;;;;;71.20;18.30;;;0.80;99.90;;;;;;5073814;28;20487;-91
2022/01/10 08:40:52;;;;;;;44.77;17.33;;;0.90;99.90;;;;;;5075539;28;20493;-91
2022/01/10 08:43:20;;;;;;;48.77;17.87;;;1.10;99.90;;;;;;5074069;28;20519;-89
2022/01/10 08:45:48;;;;;;;45.57;17.23;;;1.30;99.90;;;;;;5074483;28;20451;-90
2022/01/10 08:48:29;;;;;;;53.33;18.80;;;1.10;99.90;;;;;;5059054;28;20411;-89
2022/01/10 08:50:57;;;;;;;57.27;17.90;;;1.30;99.90;;;;;;5075265;28;20427;-89
2022/01/10 08:53:27;;;;;;;56.47;18.30;;;1.30;99.90;;;;;;5075994;28;20451;-90
2022/01/10 08:55:55;;;;;;;86.23;18.10;;;1.40;99.90;;;;;;5075943;28;20458;-92
2022/01/10 08:58:24;;;;;;;64.87;16.10;;;1.40;99.90;;;;;;5070517;28;20560;-92
2022/01/10 09:00:54;;;;;;;59.43;17.90;;;1.30;99.90;;;;;;5053626;28;20460;-89
2022/01/10 09:03:25;;;;;;;46.57;16.60;;;1.30;99.90;;;;;;5044820;28;20464;-90
2022/01/10 09:05:59;;;;;;;42.47;16.17;;;1.40;99.90;;;;;;5075372;28;20442;-91
2022/01/10 09:08:51;;;;;;;79.07;16.07;;;1.40;99.90;;;;;;5069746;28;20491;-91
2022/01/10 09:11:19;;;;;;;157.70;15.53;;;1.20;99.90;;;;;;5072882;28;20525;-91
2022/01/10 09:13:52;;;;;;;134.50;15.83;;;1.10;99.90;;;;;;5071975;28;20436;-92
2022/01/10 09:16:21;;;;;;;130.80;15.93;;;1.00;99.90;;;;;;5060764;28;20462;-89
2022/01/10 09:18:56;;;;;;;95.17;15.77;;;0.90;99.90;;;;;;5053972;28;20505;-92
2022/01/10 09:24:14;;;;;;;112.83;13.00;;;0.80;99.90;;;;;;5071500;28;20440;-92
2022/01/10 09:26:41;;;;;;;69.43;12.93;;;0.80;99.90;;;;;;5058010;28;20442;-91
2022/01/10 09:29:08;;;;;;;63.50;15.37;;;0.60;99.90;;;;;;5068870;28;20447;-88
2022/01/10 09:31:37;;;;;;;61.00;12.77;;;0.70;99.90;;;;;;5061954;28;20551;-88
2022/01/10 09:34:06;;;;;;;72.93;12.23;;;0.70;99.90;;;;;;5069343;28;20442;-88
2022/01/10 09:36:41;;;;;;;65.03;12.83;;;0.70;99.90;;;;;;5069444;28;20443;-88
2022/01/10 09:39:24;;;;;;;60.80;13.20;;;0.70;99.90;;;;;;5066622;28;20490;-90
2022/01/10 09:42:09;;;;;;;58.17;17.80;;;0.70;99.90;;;;;;5068795;28;20421;-90
2022/01/10 09:45:03;;;;;;;76.43;13.13;;;1.00;99.90;;;;;;5069323;28;20214;-90
2022/01/10 09:47:32;;;;;;;31.67;10.73;;;1.00;99.90;;;;;;5067214;28;20731;-90
2022/01/10 09:50:29;;;;;;;49.37;10.40;;;0.90;99.90;;;;;;5069525;28;20450;-87
2022/01/10 09:53:06;;;;;;;51.50;11.83;;;1.10;99.90;;;;;;5067093;28;20428;-90
2022/01/10 09:55:34;;;;;;;34.53;10.80;;;1.00;99.90;;;;;;5068894;28;20436;-88
2022/01/10 09:58:05;;;;;;;28.37;11.07;;;0.90;99.90;;;;;;5067562;28;20485;-89
2022/01/10 10:00:32;;;;;;;59.60;11.83;;;1.00;99.90;;;;;;5068094;28;20443;-81
2022/01/10 10:03:00;;;;;;;32.87;10.57;;;1.00;99.90;;;;;;5054304;28;20458;-84
2022/01/10 10:05:29;;;;;;;30.47;9.93;;;1.00;99.90;;;;;;5054443;28;20448;-83
2022/01/10 10:07:58;;;;;;;66.70;11.93;;;1.10;99.90;;;;;;5053975;28;20461;-88
2022/01/10 10:10:29;;;;;;;25.97;9.77;;;1.00;99.90;;;;;;5053715;28;20455;-84
2022/01/10 10:12:55;;;;;;;32.37;11.33;;;0.90;99.90;;;;;;5053687;28;20470;-84
2022/01/10 10:15:28;;;;;;;30.10;11.30;;;1.00;99.90;;;;;;5052130;28;20451;-81
2022/01/10 10:17:55;;;;;;;24.13;12.10;;;1.00;99.90;;;;;;5057816;28;20472;-86
2022/01/10 10:20:31;;;;;;;24.53;11.70;;;1.20;99.90;;;;;;5062680;28;20440;-86
2022/01/10 10:22:58;;;;;;;29.53;12.27;;;1.30;99.90;;;;;;5060866;28;20473;-88
2022/01/10 10:25:25;;;;;;;29.90;13.33;;;1.30;99.90;;;;;;5057894;28;20964;-88
2022/01/10 10:27:52;;;;;;;31.13;12.80;;;1.40;99.90;;;;;;5054235;28;20444;-88
2022/01/10 10:30:22;;;;;;;36.07;13.27;;;1.10;99.90;;;;;;5054357;28;20453;-88
2022/01/10 10:32:50;;;;;;;26.10;12.90;;;1.10;99.90;;;;;;5054876;28;20926;-89
2022/01/10 10:35:17;;;;;;;44.93;14.00;;;1.20;99.90;;;;;;5056069;28;20474;-89
2022/01/10 10:37:48;;;;;;;44.13;13.97;;;0.90;99.90;;;;;;5055535;28;20442;-90
2022/01/10 10:40:16;;;;;;;39.10;13.93;;;0.80;99.90;;;;;;5055465;28;20968;-90
2022/01/10 10:42:45;;;;;;;43.17;15.23;;;0.80;99.90;;;;;;5055583;28;20507;-89
2022/01/10 10:45:14;;;;;;;51.00;14.70;;;0.90;99.90;;;;;;5037789;28;20487;-88
2022/01/10 10:47:44;;;;;;;48.83;14.37;;;1.00;99.90;;;;;;5055932;28;20459;-88
2022/01/10 10:50:11;;;;;;;53.50;16.73;;;1.10;99.90;;;;;;5055774;28;20486;-89
2022/01/10 10:52:41;;;;;;;48.30;16.50;;;1.30;99.90;;;;;;5055129;28;20463;-90
2022/01/10 10:55:12;;;;;;;46.73;17.67;;;1.40;99.90;;;;;;5055208;28;20922;-88
2022/01/10 10:57:39;;;;;;;64.50;15.40;;;1.50;99.90;;;;;;5054770;28;20447;-89
2022/01/10 11:00:10;;;;;;;42.37;17.53;;;1.30;99.90;;;;;;5037300;28;20451;-89
2022/01/10 11:02:37;;;;;;;48.17;17.07;;;1.30;99.90;;;;;;5054281;28;20455;-90
2022/01/10 11:05:06;;;;;;;42.77;15.63;;;1.30;99.90;;;;;;5054044;28;20435;-89
2022/01/10 11:07:35;;;;;;;53.07;17.87;;;1.30;99.90;;;;;;5053861;28;20813;-89
2022/01/10 11:10:03;;;;;;;49.03;17.67;;;1.20;99.90;;;;;;5036764;28;20960;-91
2022/01/10 11:12:33;;;;;;;48.43;17.33;;;1.20;99.90;;;;;;5036747;28;20490;-89
2022/01/10 11:15:00;;;;;;;47.23;17.27;;;1.30;99.90;;;;;;5054403;28;20988;-89
2022/01/10 11:17:28;;;;;;;52.80;19.17;;;1.40;99.90;;;;;;5054406;28;20937;-89
2022/01/10 11:20:13;;;;;;;63.10;17.67;;;1.50;99.90;;;;;;5054006;28;20478;-89
2022/01/10 11:22:41;;;;;;;48.93;18.43;;;1.50;99.90;;;;;;5054207;28;20859;-88
2022/01/10 11:25:20;;;;;;;60.43;19.40;;;1.60;99.90;;;;;;5036245;28;20443;-89
2022/01/10 11:27:51;;;;;;;39.73;17.17;;;1.70;99.90;;;;;;5053892;28;20493;-90
2022/01/10 11:30:32;;;;;;;40.20;16.33;;;1.90;99.90;;;;;;5054364;28;20459;-89
2022/01/10 11:33:03;;;;;;;53.37;16.47;;;2.10;99.90;;;;;;5054877;28;21052;-90
2022/01/10 11:35:33;;;;;;;38.90;16.40;;;2.10;99.90;;;;;;5054470;28;20501;-89
2022/01/10 11:38:01;;;;;;;45.63;17.00;;;2.20;99.90;;;;;;5054191;28;20569;-89
2022/01/10 11:40:28;;;;;;;53.50;18.47;;;2.10;99.90;;;;;;5053922;28;20455;-89
2022/01/10 11:42:58;;;;;;;58.07;17.03;;;2.20;99.90;;;;;;5036351;28;20476;-90
2022/01/10 11:45:26;;;;;;;50.47;16.80;;;1.90;99.90;;;;;;5053743;28;20434;-90
2022/01/10 11:48:14;;;;;;;49.77;17.23;;;1.70;99.90;;;;;;5036194;28;20451;-90
2022/01/10 11:50:44;;;;;;;38.83;17.57;;;1.90;99.90;;;;;;5053882;28;20570;-89
2022/01/10 11:53:11;;;;;;;38.00;17.90;;;2.00;99.90;;;;;;5035658;28;20915;-88
2022/01/10 11:55:51;;;;;;;42.53;17.60;;;2.20;99.90;;;;;;5053545;28;20452;-87
2022/01/10 11:58:21;;;;;;;49.17;16.20;;;2.30;99.90;;;;;;5053532;28;21024;-89
2022/01/10 12:00:50;;;;;;;57.97;17.70;;;2.20;99.90;;;;;;5038855;28;20456;-90
2022/01/10 12:03:18;;;;;;;54.60;16.37;;;2.10;99.90;;;;;;5033564;28;20487;-91
2022/01/10 12:05:46;;;;;;;35.40;15.00;;;1.90;99.90;;;;;;5033826;28;20927;-88
2022/01/10 12:08:13;;;;;;;34.13;14.67;;;2.00;99.90;;;;;;5016298;28;20884;-88
2022/01/10 12:10:40;;;;;;;34.80;14.37;;;2.10;99.90;;;;;;5033963;28;20455;-88
2022/01/10 12:13:11;;;;;;;35.27;15.10;;;2.00;99.90;;;;;;5034549;28;20454;-89
2022/01/10 12:15:40;;;;;;;30.73;13.30;;;2.10;99.90;;;;;;5034672;28;20467;-88
2022/01/10 12:18:08;;;;;;;27.20;13.33;;;2.40;99.90;;;;;;5035064;28;20493;-89
2022/01/10 12:20:36;;;;;;;35.50;13.40;;;2.40;99.90;;;;;;5037325;28;20872;-90
2022/01/10 12:23:03;;;;;;;28.87;12.50;;;2.40;99.90;;;;;;5037596;28;20638;-88
2022/01/10 12:25:30;;;;;;;21.13;12.00;;;2.60;99.90;;;;;;5020169;28;20870;-91
2022/01/10 12:28:00;;;;;;;24.00;11.20;;;2.70;99.90;;;;;;5038327;28;20444;-89
2022/01/10 12:30:27;;;;;;;29.63;10.13;;;2.70;99.90;;;;;;5037423;28;20457;-88
2022/01/10 12:32:56;;;;;;;23.50;9.70;;;2.70;99.90;;;;;;5038618;28;20452;-88
2022/01/10 12:35:22;;;;;;;38.97;14.30;;;2.70;99.90;;;;;;5037339;28;20448;-88
2022/01/10 12:37:54;;;;;;;25.03;10.87;;;2.70;99.90;;;;;;5036892;28;20432;-88
2022/01/10 12:40:23;;;;;;;25.67;11.83;;;2.60;99.90;;;;;;5037010;28;20483;-89
2022/01/10 12:42:53;;;;;;;23.80;12.47;;;2.60;99.90;;;;;;5019130;28;20468;-89
2022/01/10 12:45:20;;;;;;;32.73;12.83;;;2.70;99.90;;;;;;5037414;28;20458;-88
2022/01/10 12:47:47;;;;;;;32.73;15.30;;;2.60;99.90;;;;;;5037859;28;20448;-89
2022/01/10 12:50:16;;;;;;;34.57;14.30;;;2.60;99.90;;;;;;5037989;28;20471;-89
2022/01/10 12:52:42;;;;;;;35.70;16.30;;;2.60;99.90;;;;;;5037608;28;20448;-88
2022/01/10 12:55:10;;;;;;;36.57;16.97;;;2.70;99.90;;;;;;5037523;28;20436;-89
2022/01/10 12:57:37;;;;;;;46.93;16.83;;;2.60;99.90;;;;;;5037802;28;20445;-89
2022/01/10 13:00:06;;;;;;;45.63;16.60;;;2.60;99.90;;;;;;5039452;28;20492;-89
2022/01/10 13:02:34;;;;;;;40.17;16.23;;;2.70;99.90;;;;;;5039253;28;20440;-89
2022/01/10 13:05:14;;;;;;;34.83;16.83;;;2.70;99.90;;;;;;5039803;28;20534;-90
2022/01/10 13:07:44;;;;;;;34.30;15.93;;;2.80;99.90;;;;;;5058039;28;20456;-88
2022/01/10 13:10:19;;;;;;;39.73;14.93;;;2.80;99.90;;;;;;5057583;28;20455;-90
2022/01/10 13:12:48;;;;;;;30.73;15.13;;;2.70;99.90;;;;;;5056127;28;20550;-87
2022/01/10 13:15:15;;;;;;;37.57;15.00;;;2.70;99.90;;;;;;5057328;28;20463;-89
2022/01/10 13:17:53;;;;;;;35.07;15.63;;;2.80;99.90;;;;;;5056470;28;20456;-89
2022/01/10 13:20:22;;;;;;;31.27;15.37;;;2.90;99.90;;;;;;5056015;28;20907;-90
2022/01/10 13:22:59;;;;;;;55.70;15.83;;;2.80;99.90;;;;;;5055856;28;21057;-90
2022/01/10 13:25:26;;;;;;;37.57;16.03;;;2.70;99.90;;;;;;5056109;28;20427;-88
2022/01/10 13:28:00;;;;;;;33.37;15.90;;;3.00;99.90;;;;;;5056834;28;20440;-88
2022/01/10 13:30:28;;;;;;;28.93;15.70;;;2.90;99.90;;;;;;5056346;28;20469;-89